Time;durP1;ratioP1;P1;durP2;ratioP2;P2;SDS_P1;SDS_P2;PMS_P1;PMS_P2;Temp;Humidity;BMP_temperature;BMP_pressure;BME280_temperature;BME280_humidity;BME280_pressure;Samples;Min_cycle;Max_cycle;Signal;HPM_P1;HPM_P2
2022/07/23 00:01:41;;;;;;;7.55;5.63;;;;;;;24.93;51.15;94927.09;5070637;28;20203;-83
2022/07/23 00:04:07;;;;;;;8.50;5.40;;;;;;;24.95;51.43;94933.69;5053359;28;20709;-82
2022/07/23 00:06:34;;;;;;;6.45;4.75;;;;;;;24.93;51.29;94937.56;5053792;28;20183;-82
2022/07/23 00:09:03;;;;;;;7.40;6.18;;;;;;;24.92;51.48;94935.97;5053647;28;20190;-80
2022/07/23 00:11:29;;;;;;;8.88;4.93;;;;;;;24.87;51.80;94935.81;5053424;28;20205;-80
2022/07/23 00:13:57;;;;;;;7.03;4.95;;;;;;;24.53;51.78;94885.75;5053327;28;20219;-78
2022/07/23 00:16:24;;;;;;;6.60;4.78;;;;;;;24.84;52.16;94942.31;5053356;28;20210;-81
2022/07/23 00:18:51;;;;;;;10.52;6.00;;;;;;;24.83;52.03;94950.34;5052803;28;20253;-81
2022/07/23 00:21:18;;;;;;;8.35;5.43;;;;;;;24.82;52.12;94951.38;5052896;28;20187;-81
2022/07/23 00:23:45;;;;;;;9.18;4.93;;;;;;;24.80;51.64;94937.72;5052949;28;20187;-80
2022/07/23 00:26:13;;;;;;;7.18;5.53;;;;;;;24.78;50.84;94945.78;5052719;28;20689;-80
2022/07/23 00:28:40;;;;;;;5.47;4.93;;;;;;;24.73;50.74;94943.81;5052429;28;20202;-80
2022/07/23 00:31:07;;;;;;;7.55;4.40;;;;;;;24.77;50.18;94947.59;5052545;28;20187;-79
2022/07/23 00:33:34;;;;;;;7.40;5.07;;;;;;;24.76;50.08;94950.44;5052593;28;20195;-83
2022/07/23 00:36:01;;;;;;;7.15;4.78;;;;;;;24.73;49.89;94945.66;5052658;28;20187;-80
2022/07/23 00:38:28;;;;;;;5.97;4.38;;;;;;;24.16;49.96;94867.41;5052312;28;20184;-78
2022/07/23 00:40:54;;;;;;;7.05;5.25;;;;;;;24.02;49.79;94845.84;5052691;28;20210;-81
2022/07/23 00:43:24;;;;;;;7.22;5.30;;;;;;;24.61;49.71;94939.53;5052965;28;20778;-81
2022/07/23 00:45:50;;;;;;;6.88;5.35;;;;;;;24.62;50.07;94947.19;5052736;28;20195;-80
2022/07/23 00:48:17;;;;;;;7.65;5.50;;;;;;;24.18;50.29;94875.84;5052427;28;20198;-81
2022/07/23 00:50:45;;;;;;;6.20;5.32;;;;;;;24.37;50.40;94917.66;5052130;28;20195;-80
2022/07/23 00:53:13;;;;;;;8.73;4.85;;;;;;;24.52;50.96;94944.28;5052191;28;20191;-80
2022/07/23 00:55:40;;;;;;;5.55;4.90;;;;;;;24.49;51.22;94944.72;5051855;28;20229;-79
2022/07/23 00:58:07;;;;;;;8.48;5.35;;;;;;;24.44;51.62;94944.59;5052323;28;20191;-80
2022/07/23 01:00:36;;;;;;;6.65;4.88;;;;;;;24.40;51.65;94946.03;5052260;28;20194;-79
2022/07/23 01:03:03;;;;;;;6.65;4.93;;;;;;;24.36;51.75;94943.03;5052331;28;20191;-81
2022/07/23 01:05:30;;;;;;;6.03;5.15;;;;;;;24.32;52.07;94935.84;5051653;28;20190;-79
2022/07/23 01:07:57;;;;;;;7.20;4.85;;;;;;;24.28;52.13;94944.09;5051837;28;20198;-80
2022/07/23 01:10:33;;;;;;;9.20;5.30;;;;;;;24.26;52.50;94942.69;5051747;28;20540;-79
2022/07/23 01:13:02;;;;;;;8.10;4.97;;;;;;;24.22;52.63;94946.75;5052051;28;20182;-79
2022/07/23 01:15:29;;;;;;;8.13;6.13;;;;;;;23.99;52.71;94914.22;5052074;28;20234;-79
2022/07/23 01:17:58;;;;;;;7.47;5.32;;;;;;;24.01;52.66;94916.63;5051628;28;20238;-78
2022/07/23 01:20:25;;;;;;;7.63;4.97;;;;;;;24.13;52.88;94941.00;5051141;28;20183;-80
2022/07/23 01:22:54;;;;;;;5.18;4.68;;;;;;;23.96;53.15;94908.63;5051164;28;20195;-81
2022/07/23 01:25:21;;;;;;;6.65;5.70;;;;;;;24.01;52.85;94925.28;5051719;28;20206;-81
2022/07/23 01:27:49;;;;;;;6.95;4.80;;;;;;;24.07;52.87;94933.25;5052096;28;20192;-83
2022/07/23 01:30:16;;;;;;;7.13;5.40;;;;;;;24.03;52.93;94936.28;5052319;28;20187;-83
2022/07/23 01:32:43;;;;;;;8.85;5.13;;;;;;;23.61;52.86;94866.50;5052170;28;20202;-83
2022/07/23 01:35:12;;;;;;;10.88;5.53;;;;;;;24.00;52.76;94933.31;5051968;28;20207;-84
2022/07/23 01:37:39;;;;;;;9.20;4.90;;;;;;;23.98;52.65;94930.13;5051474;28;20650;-84
2022/07/23 01:40:08;;;;;;;6.68;4.60;;;;;;;23.89;52.85;94915.72;5052478;28;20187;-84
2022/07/23 01:42:36;;;;;;;7.35;5.10;;;;;;;23.94;53.01;94937.59;5051678;28;20194;-84
2022/07/23 01:45:04;;;;;;;7.32;5.60;;;;;;;23.91;52.97;94934.59;5052258;28;20194;-84
2022/07/23 01:47:31;;;;;;;4.93;4.40;;;;;;;23.82;53.09;94922.81;5051490;28;20605;-84
2022/07/23 01:49:58;;;;;;;8.57;6.22;;;;;;;23.81;53.00;94926.44;5052627;28;20190;-82
2022/07/23 01:52:25;;;;;;;7.65;5.13;;;;;;;23.85;53.14;94931.03;5052087;28;20191;-83
2022/07/23 01:54:51;;;;;;;9.52;5.25;;;;;;;23.82;53.23;94934.06;5051354;28;20233;-83
2022/07/23 01:57:20;;;;;;;9.27;4.72;;;;;;;23.69;53.06;94913.28;5051450;28;20187;-79
2022/07/23 01:59:46;;;;;;;10.30;5.50;;;;;;;23.76;53.15;94922.66;5051026;28;20650;-78
2022/07/23 02:02:13;;;;;;;12.77;6.40;;;;;;;23.75;53.21;94934.13;5051075;28;20206;-78
2022/07/23 02:04:40;;;;;;;8.45;4.75;;;;;;;23.73;53.18;94933.53;5050442;28;20569;-77
2022/07/23 02:07:08;;;;;;;5.95;4.68;;;;;;;23.73;53.52;94940.56;5051668;28;20187;-80
2022/07/23 02:09:35;;;;;;;8.73;4.90;;;;;;;23.72;53.50;94937.16;5051088;28;20198;-78
2022/07/23 02:12:03;;;;;;;8.35;4.95;;;;;;;23.70;53.34;94933.16;5051412;28;20187;-81
2022/07/23 02:14:31;;;;;;;10.35;5.57;;;;;;;23.67;53.49;94937.00;5050971;28;20223;-80
2022/07/23 02:16:58;;;;;;;14.27;5.40;;;;;;;23.09;53.12;94840.59;5051549;28;20201;-78
2022/07/23 02:19:24;;;;;;;6.88;5.32;;;;;;;23.65;53.31;94933.00;5050758;28;20237;-80
2022/07/23 02:21:51;;;;;;;7.03;4.95;;;;;;;23.62;53.47;94936.00;5051632;28;20183;-80
2022/07/23 02:24:18;;;;;;;10.77;5.68;;;;;;;23.60;53.48;94938.03;5050905;28;20577;-79
2022/07/23 02:26:45;;;;;;;9.38;5.03;;;;;;;23.45;53.83;94918.25;5050893;28;20195;-80
2022/07/23 02:29:12;;;;;;;9.98;4.90;;;;;;;23.57;53.51;94930.63;5051360;28;20183;-82
2022/07/23 02:31:40;;;;;;;7.25;4.80;;;;;;;22.67;53.54;94795.94;5056023;28;20659;-80
2022/07/23 02:34:11;;;;;;;8.30;5.25;;;;;;;23.52;53.25;94932.06;5054951;28;20187;-81
2022/07/23 02:36:40;;;;;;;7.60;5.35;;;;;;;23.53;53.04;94930.22;5050573;28;20945;-82
2022/07/23 02:39:07;;;;;;;7.72;4.88;;;;;;;23.53;52.81;94943.28;5050131;28;20183;-80
2022/07/23 02:41:34;;;;;;;7.60;5.45;;;;;;;23.51;52.59;94938.28;5050348;28;20202;-81
2022/07/23 02:44:01;;;;;;;8.43;5.35;;;;;;;23.09;52.34;94877.13;5050379;28;20191;-79
2022/07/23 02:46:28;;;;;;;9.07;5.30;;;;;;;23.36;52.40;94926.53;5050145;28;20190;-80
2022/07/23 02:48:56;;;;;;;8.55;5.32;;;;;;;23.43;52.17;94942.97;5050465;28;20214;-80
2022/07/23 02:51:23;;;;;;;8.60;4.57;;;;;;;22.99;51.91;94882.03;5049711;28;20561;-78
2022/07/23 02:53:50;;;;;;;6.25;4.88;;;;;;;23.11;51.72;94903.84;5050089;28;20202;-83
2022/07/23 02:56:26;;;;;;;8.13;5.00;;;;;;;23.35;51.55;94941.41;5051297;28;20714;-82
2022/07/23 02:58:53;;;;;;;12.93;5.05;;;;;;;23.32;51.68;94951.50;5053564;28;20693;-81
2022/07/23 03:01:20;;;;;;;5.38;4.88;;;;;;;23.14;51.59;94937.31;5054183;28;20195;-81
2022/07/23 03:03:47;;;;;;;7.55;4.85;;;;;;;23.25;51.61;94954.13;5055756;28;20198;-81
2022/07/23 03:06:15;;;;;;;7.20;4.95;;;;;;;23.13;51.63;94937.53;5062873;28;20203;-78
2022/07/23 03:08:42;;;;;;;8.15;5.60;;;;;;;23.20;51.55;94954.75;5058471;28;20199;-78
2022/07/23 03:11:10;;;;;;;10.63;5.13;;;;;;;23.16;51.95;94966.63;5058300;28;20195;-81
2022/07/23 03:13:38;;;;;;;7.72;5.38;;;;;;;22.87;51.17;94928.00;5051917;28;20191;-82
2022/07/23 03:16:05;;;;;;;8.65;5.10;;;;;;;22.82;51.01;94920.81;5054169;28;20229;-80
2022/07/23 03:18:32;;;;;;;5.95;4.80;;;;;;;22.51;51.01;94877.22;5054228;28;20226;-79
2022/07/23 03:20:59;;;;;;;9.30;4.90;;;;;;;23.04;51.14;94961.25;5053800;28;20206;-78
2022/07/23 03:23:28;;;;;;;9.38;5.03;;;;;;;23.09;51.27;94973.66;5053293;28;20191;-81
2022/07/23 03:25:55;;;;;;;6.72;4.75;;;;;;;23.08;51.24;94974.69;5054344;28;20197;-81
2022/07/23 03:28:21;;;;;;;15.35;4.88;;;;;;;22.95;51.61;94967.72;5053963;28;20214;-81
2022/07/23 03:30:48;;;;;;;6.00;4.50;;;;;;;22.93;51.66;94966.34;5054136;28;20205;-80
2022/07/23 03:33:16;;;;;;;8.95;5.22;;;;;;;22.98;51.76;94985.56;5053788;28;20206;-84
2022/07/23 03:35:43;;;;;;;6.75;5.65;;;;;;;22.95;52.30;94977.34;5053630;28;20268;-83
2022/07/23 03:38:10;;;;;;;7.43;5.00;;;;;;;22.82;52.61;94965.13;5058732;28;20210;-82
2022/07/23 03:40:38;;;;;;;8.07;5.45;;;;;;;22.93;52.95;94979.38;5053873;28;20199;-81
2022/07/23 03:43:05;;;;;;;11.70;6.10;;;;;;;22.92;53.57;94986.38;5053309;28;20193;-83
2022/07/23 03:45:33;;;;;;;14.18;6.00;;;;;;;22.94;53.74;94991.41;5053653;28;20704;-83
2022/07/23 03:48:01;;;;;;;10.63;5.82;;;;;;;22.94;54.15;94992.22;5053487;28;20183;-82
2022/07/23 03:50:28;;;;;;;11.70;6.15;;;;;;;22.94;54.37;94984.38;5053229;28;20202;-80
2022/07/23 03:52:55;;;;;;;11.93;6.30;;;;;;;22.94;54.83;94981.78;5053601;28;20193;-83
2022/07/23 03:55:21;;;;;;;12.05;6.68;;;;;;;22.93;55.23;94984.59;5053115;28;20601;-79
2022/07/23 03:57:50;;;;;;;12.30;7.22;;;;;;;22.92;55.37;94988.19;5053550;28;20193;-81
2022/07/23 04:00:17;;;;;;;10.60;6.18;;;;;;;22.91;55.72;94991.81;5053117;28;20203;-80
2022/07/23 04:02:43;;;;;;;13.43;5.85;;;;;;;22.66;55.68;94953.34;5053247;28;20202;-80
2022/07/23 04:05:10;;;;;;;10.50;5.97;;;;;;;22.88;55.45;94990.38;5052906;28;20202;-79
2022/07/23 04:07:37;;;;;;;10.20;5.40;;;;;;;22.88;55.29;94984.38;5053449;28;20179;-83
2022/07/23 04:10:05;;;;;;;11.48;6.00;;;;;;;22.87;54.92;94978.34;5053158;28;20197;-81
2022/07/23 04:12:32;;;;;;;8.20;5.60;;;;;;;22.87;55.15;94982.78;5053475;28;20194;-80
2022/07/23 04:15:00;;;;;;;10.98;5.85;;;;;;;22.87;55.42;94986.19;5053517;28;20210;-83
2022/07/23 04:17:27;;;;;;;10.23;6.00;;;;;;;22.80;55.32;94969.78;5053423;28;20227;-84
2022/07/23 04:19:53;;;;;;;9.98;5.88;;;;;;;22.88;55.21;94989.59;5053095;28;20183;-83
2022/07/23 04:22:20;;;;;;;11.45;5.82;;;;;;;22.82;55.53;94972.97;5053489;28;20197;-83
2022/07/23 04:24:47;;;;;;;14.88;5.47;;;;;;;22.96;55.42;94998.00;5052754;28;20195;-82
2022/07/23 04:27:14;;;;;;;12.35;6.65;;;;;;;22.96;55.25;94995.41;5052489;28;20191;-83
2022/07/23 04:29:41;;;;;;;14.52;7.00;;;;;;;22.98;55.56;94990.78;5035006;28;20195;-82
2022/07/23 04:32:09;;;;;;;13.85;6.30;;;;;;;22.93;55.79;94984.59;5052939;28;20187;-80
2022/07/23 04:34:36;;;;;;;11.80;6.35;;;;;;;23.02;56.13;94996.41;5053064;28;20186;-83
2022/07/23 04:37:03;;;;;;;8.02;5.95;;;;;;;22.77;56.07;94957.13;5052298;28;20260;-81
2022/07/23 04:39:30;;;;;;;14.68;6.15;;;;;;;22.99;56.18;94984.56;5052487;28;20635;-82
2022/07/23 04:41:57;;;;;;;11.35;6.05;;;;;;;22.97;56.13;94985.75;5059551;28;20195;-83
2022/07/23 04:44:24;;;;;;;8.63;6.13;;;;;;;23.13;55.89;94998.34;5052886;28;20194;-79
2022/07/23 04:46:51;;;;;;;12.35;5.68;;;;;;;23.02;56.23;94983.34;5052140;28;20669;-79
2022/07/23 04:49:19;;;;;;;10.40;6.03;;;;;;;23.19;56.05;95013.19;5052074;28;20191;-82
2022/07/23 04:51:46;;;;;;;9.55;6.20;;;;;;;23.24;55.87;95005.53;5052377;28;20190;-81
2022/07/23 04:54:12;;;;;;;7.00;6.30;;;;;;;23.16;55.82;94989.31;5054534;28;20191;-82
2022/07/23 04:56:39;;;;;;;8.23;5.30;;;;;;;23.29;55.87;95013.53;5052020;28;20230;-83
2022/07/23 04:59:08;;;;;;;8.50;5.85;;;;;;;22.65;55.57;94910.03;5051937;28;20187;-83
2022/07/23 05:01:35;;;;;;;12.32;6.60;;;;;;;23.26;55.48;94993.06;5051802;28;20214;-82
2022/07/23 05:04:02;;;;;;;11.85;6.20;;;;;;;23.17;55.24;94970.03;5052252;28;20209;-79
2022/07/23 05:06:30;;;;;;;12.88;6.07;;;;;;;23.39;55.13;94994.78;5052071;28;20195;-83
2022/07/23 05:08:57;;;;;;;9.95;6.90;;;;;;;23.03;55.11;94928.34;5052019;28;20532;-81
2022/07/23 05:11:24;;;;;;;14.57;6.57;;;;;;;23.52;55.43;95002.53;5051679;28;20191;-82
2022/07/23 05:13:53;;;;;;;8.30;6.38;;;;;;;23.61;55.14;95005.69;5051499;28;20289;-83
2022/07/23 05:16:20;;;;;;;11.18;6.18;;;;;;;23.72;55.39;95010.28;5051684;28;20227;-84
2022/07/23 05:18:46;;;;;;;11.23;6.68;;;;;;;23.85;55.48;95013.81;5051116;28;20903;-85
2022/07/23 05:21:13;;;;;;;14.82;6.30;;;;;;;23.98;55.84;95016.34;5051714;28;20222;-82
2022/07/23 05:23:42;;;;;;;10.75;6.32;;;;;;;23.99;55.53;94986.56;5051669;28;20195;-84
2022/07/23 05:26:09;;;;;;;8.07;6.28;;;;;;;24.32;54.38;95011.63;5051824;28;20274;-84
2022/07/23 05:28:36;;;;;;;10.18;6.40;;;;;;;24.45;53.74;95007.09;5051908;28;20187;-79
2022/07/23 05:31:03;;;;;;;8.90;6.05;;;;;;;24.65;53.10;95013.94;5051634;28;20201;-84
2022/07/23 05:33:31;;;;;;;8.75;6.03;;;;;;;24.50;53.13;94956.78;5052149;28;20607;-80
2022/07/23 05:36:02;;;;;;;7.80;5.43;;;;;;;24.99;53.37;95008.13;5051700;28;20303;-77
2022/07/23 05:38:29;;;;;;;9.18;5.70;;;;;;;25.16;52.47;95015.41;5050125;28;20731;-78
2022/07/23 05:40:57;;;;;;;9.07;6.10;;;;;;;25.13;51.72;95003.59;5050632;28;20194;-78
2022/07/23 05:43:24;;;;;;;10.23;6.93;;;;;;;25.38;51.44;95018.34;5050863;28;20545;-80
2022/07/23 05:45:51;;;;;;;9.32;6.13;;;;;;;25.58;51.27;95013.66;5051476;28;20199;-79
2022/07/23 05:48:18;;;;;;;9.82;6.55;;;;;;;25.50;51.18;94982.53;5052820;28;20266;-79
2022/07/23 05:50:45;;;;;;;8.55;6.32;;;;;;;25.74;50.80;94996.50;5051349;28;20187;-79
2022/07/23 05:53:12;;;;;;;12.95;6.22;;;;;;;26.06;50.58;95015.38;5052566;28;20201;-82
2022/07/23 05:55:39;;;;;;;8.52;6.22;;;;;;;25.90;50.54;94967.03;5052866;28;20254;-85
2022/07/23 05:58:07;;;;;;;7.72;6.45;;;;;;;26.38;49.63;95015.06;5053023;28;20194;-82
2022/07/23 06:00:34;;;;;;;9.20;5.97;;;;;;;26.56;48.82;95016.81;5054162;28;20252;-79
2022/07/23 06:03:01;;;;;;;12.63;6.28;;;;;;;26.66;48.15;95001.28;5053807;28;20662;-81
2022/07/23 06:05:28;;;;;;;8.07;6.03;;;;;;;26.87;48.10;95011.19;5053411;28;20187;-82
2022/07/23 06:07:55;;;;;;;7.95;6.47;;;;;;;27.07;46.70;95007.34;5051607;28;20202;-80
2022/07/23 06:10:22;;;;;;;8.60;5.78;;;;;;;27.12;46.40;94991.75;5051453;28;20297;-84
2022/07/23 06:12:49;;;;;;;12.35;6.32;;;;;;;27.37;45.79;95001.91;5051521;28;20609;-83
2022/07/23 06:15:17;;;;;;;7.35;6.15;;;;;;;27.55;45.24;95001.75;5051187;28;20191;-79
2022/07/23 06:17:44;;;;;;;9.00;6.38;;;;;;;27.69;45.55;95005.66;5050931;28;20229;-84
2022/07/23 06:20:11;;;;;;;14.82;7.13;;;;;;;27.62;45.77;94983.19;5050795;28;20190;-80
2022/07/23 06:22:39;;;;;;;6.70;6.10;;;;;;;27.97;45.21;95004.03;5050579;28;20191;-81
2022/07/23 06:25:07;;;;;;;9.32;6.18;;;;;;;28.11;44.77;95010.59;5051025;28;20184;-86
2022/07/23 06:27:34;;;;;;;11.27;6.75;;;;;;;28.26;45.22;95002.13;5050765;28;20206;-83
2022/07/23 06:30:01;;;;;;;11.55;5.68;;;;;;;28.47;44.56;95006.66;5051365;28;20198;-84
2022/07/23 06:32:29;;;;;;;11.15;6.85;;;;;;;28.63;44.60;94999.00;5050826;28;20186;-83
2022/07/23 06:34:56;;;;;;;15.73;6.95;;;;;;;28.76;44.57;94998.66;5052589;28;20195;-84
2022/07/23 06:37:25;;;;;;;8.30;6.20;;;;;;;28.82;44.63;95002.13;5055356;28;20233;-84
2022/07/23 06:39:52;;;;;;;10.93;6.85;;;;;;;29.08;43.29;95003.25;5055341;28;20301;-85
2022/07/23 06:42:19;;;;;;;7.82;5.60;;;;;;;29.22;42.98;95000.00;5060136;28;20199;-85
2022/07/23 06:44:45;;;;;;;8.75;6.68;;;;;;;29.25;43.07;94993.44;5053819;28;20190;-80
2022/07/23 06:47:12;;;;;;;12.20;6.38;;;;;;;29.52;41.83;95008.47;5052999;28;20195;-85
2022/07/23 06:49:41;;;;;;;11.90;6.70;;;;;;;29.59;41.62;95009.13;5052454;28;20186;-83
2022/07/23 06:52:08;;;;;;;12.82;6.13;;;;;;;29.69;41.56;95011.84;5050352;28;20227;-84
2022/07/23 06:54:35;;;;;;;7.88;6.15;;;;;;;29.77;41.75;95002.69;5050592;28;20290;-84
2022/07/23 06:57:02;;;;;;;10.65;6.25;;;;;;;29.50;41.69;94966.56;5051179;28;20222;-85
2022/07/23 06:59:29;;;;;;;8.77;6.65;;;;;;;29.83;41.52;94999.81;5050850;28;20677;-84
2022/07/23 07:01:57;;;;;;;9.32;6.32;;;;;;;29.83;41.11;95005.09;5051058;28;20189;-85
2022/07/23 07:04:24;;;;;;;12.73;6.75;;;;;;;29.94;41.01;95001.53;5050842;28;20187;-84
2022/07/23 07:06:52;;;;;;;9.20;6.25;;;;;;;30.07;41.07;95000.31;5050729;28;20198;-85
2022/07/23 07:09:19;;;;;;;10.07;6.85;;;;;;;30.16;41.04;95005.94;5050415;28;20195;-85
2022/07/23 07:11:46;;;;;;;9.07;6.38;;;;;;;30.28;41.14;95001.28;5050397;28;20195;-84
2022/07/23 07:14:12;;;;;;;10.02;6.15;;;;;;;30.38;39.96;94992.63;5050554;28;20187;-87
2022/07/23 07:16:39;;;;;;;11.82;6.35;;;;;;;30.55;39.78;94987.97;5050738;28;20214;-86
2022/07/23 07:19:06;;;;;;;6.70;6.00;;;;;;;30.37;39.80;94940.91;5050069;28;20226;-85
2022/07/23 07:21:33;;;;;;;14.77;7.13;;;;;;;30.80;39.57;94987.34;5050876;28;20187;-79
2022/07/23 07:24:01;;;;;;;10.48;6.50;;;;;;;30.81;39.10;94991.56;5051630;28;20202;-89
2022/07/23 07:26:29;;;;;;;10.60;7.00;;;;;;;30.92;39.45;94989.78;5050109;28;20630;-86
2022/07/23 07:28:56;;;;;;;14.38;6.25;;;;;;;30.96;39.06;94983.72;5050334;28;20277;-83
2022/07/23 07:31:23;;;;;;;13.10;6.72;;;;;;;31.02;39.18;94973.19;5050675;28;20189;-81
2022/07/23 07:33:49;;;;;;;7.60;6.35;;;;;;;31.13;39.45;94978.25;5050121;28;20647;-78
2022/07/23 07:36:16;;;;;;;9.77;6.75;;;;;;;31.18;38.27;94964.25;5050111;28;20706;-81
2022/07/23 07:38:43;;;;;;;17.67;7.53;;;;;;;31.34;38.54;94973.03;5050308;28;20195;-84
2022/07/23 07:41:12;;;;;;;10.38;6.18;;;;;;;31.36;39.17;94974.38;5049661;28;20206;-79
2022/07/23 07:43:39;;;;;;;10.52;6.28;;;;;;;31.44;38.88;94965.13;5047701;28;20284;-81
2022/07/23 07:46:09;;;;;;;10.82;6.65;;;;;;;31.53;38.50;94971.50;5047494;28;20199;-78
2022/07/23 07:48:36;;;;;;;9.00;6.65;;;;;;;31.63;38.43;94976.78;5047611;28;20191;-78
2022/07/23 07:51:03;;;;;;;9.43;6.60;;;;;;;31.63;38.61;94960.91;5047074;28;20199;-79
2022/07/23 07:53:30;;;;;;;11.05;6.00;;;;;;;31.79;37.93;94961.72;5047250;28;20202;-77
2022/07/23 07:55:57;;;;;;;13.75;6.63;;;;;;;32.01;37.62;94966.78;5046711;28;20191;-78
2022/07/23 07:58:25;;;;;;;12.13;6.35;;;;;;;32.15;37.15;94962.53;5047018;28;20202;-78
2022/07/23 08:00:52;;;;;;;15.40;7.30;;;;;;;31.92;36.93;94934.78;5047204;28;20191;-78
2022/07/23 08:03:19;;;;;;;9.82;6.28;;;;;;;32.16;37.37;94974.69;5050742;28;20194;-78
2022/07/23 08:05:46;;;;;;;11.73;6.72;;;;;;;32.06;36.58;94944.81;5050895;28;20198;-77
2022/07/23 08:08:14;;;;;;;12.45;7.07;;;;;;;32.26;36.52;94971.25;5051148;28;20677;-78
2022/07/23 08:10:41;;;;;;;10.98;7.13;;;;;;;32.36;36.69;94965.16;5050802;28;20191;-79
2022/07/23 08:13:08;;;;;;;15.20;6.25;;;;;;;32.43;36.24;94952.47;5050855;28;20199;-81
2022/07/23 08:15:36;;;;;;;7.15;6.15;;;;;;;32.57;36.63;94969.38;5032532;28;20241;-82
2022/07/23 08:18:03;;;;;;;11.00;6.47;;;;;;;32.15;36.11;94887.63;5049641;28;20239;-81
2022/07/23 08:20:30;;;;;;;10.38;6.38;;;;;;;32.44;35.98;94920.41;5051852;28;20195;-81
2022/07/23 08:22:59;;;;;;;9.65;6.57;;;;;;;31.53;36.27;94790.91;5050603;28;20282;-81
2022/07/23 08:25:28;;;;;;;9.63;6.60;;;;;;;32.77;36.10;94963.19;5050133;28;20194;-79
2022/07/23 08:27:55;;;;;;;11.70;6.72;;;;;;;32.84;35.46;94966.34;5050878;28;20554;-89
2022/07/23 08:30:22;;;;;;;11.18;6.88;;;;;;;32.90;35.68;94959.16;5051116;28;20198;-85
2022/07/23 08:32:55;;;;;;;10.07;6.45;;;;;;;32.55;35.03;94910.56;5053543;28;20184;-90
2022/07/23 08:35:28;;;;;;;10.48;6.18;;;;;;;32.80;35.29;94951.28;5054389;28;20195;-84
2022/07/23 08:37:55;;;;;;;8.77;6.07;;;;;;;32.76;35.42;94960.81;5051222;28;20228;-87
2022/07/23 08:40:23;;;;;;;10.23;6.43;;;;;;;32.29;35.55;94869.31;5052079;28;20187;-86
2022/07/23 08:42:51;;;;;;;11.43;6.03;;;;;;;32.93;35.14;94956.00;5052260;28;20967;-82
2022/07/23 08:45:20;;;;;;;8.15;6.22;;;;;;;32.64;35.09;94900.19;5050391;28;20222;-86
2022/07/23 08:47:50;;;;;;;8.63;5.43;;;;;;;32.97;35.10;94941.16;5049639;28;20195;-83
2022/07/23 08:50:19;;;;;;;10.73;6.63;;;;;;;33.12;35.13;94948.25;5049707;28;20191;-80
2022/07/23 08:52:46;;;;;;;9.40;6.72;;;;;;;32.96;35.02;94921.03;5049153;28;20186;-82
2022/07/23 08:55:13;;;;;;;11.43;6.43;;;;;;;32.82;35.11;94880.28;5052410;28;20191;-88
2022/07/23 08:57:40;;;;;;;8.18;5.82;;;;;;;33.24;35.11;94946.03;5051833;28;20226;-85
2022/07/23 09:00:08;;;;;;;10.10;6.30;;;;;;;33.29;34.87;94942.56;5050878;28;20187;-81
2022/07/23 09:02:45;;;;;;;11.52;5.97;;;;;;;32.94;34.99;94888.69;5050885;28;20214;-85
2022/07/23 09:05:13;;;;;;;9.88;6.07;;;;;;;33.36;35.04;94943.84;5049812;28;20209;-84
2022/07/23 09:08:09;;;;;;;15.45;6.72;;;;;;;32.99;34.61;94882.56;5049563;28;20194;-80
2022/07/23 09:10:45;;;;;;;8.48;6.35;;;;;;;32.67;34.14;94826.28;5050219;28;20191;-84
2022/07/23 09:13:31;;;;;;;10.63;6.45;;;;;;;33.45;34.58;94936.13;5049644;28;20214;-86
2022/07/23 09:16:01;;;;;;;10.20;7.07;;;;;;;33.49;34.38;94945.13;5048907;28;20204;-82
2022/07/23 09:18:33;;;;;;;14.75;6.45;;;;;;;33.54;34.32;94944.31;5050147;28;20234;-83
2022/07/23 09:21:08;;;;;;;11.55;5.95;;;;;;;33.51;33.81;94935.06;5054890;28;20187;-83
2022/07/23 09:23:41;;;;;;;5.95;5.28;;;;;;;33.58;33.61;94935.50;5053389;28;20182;-82
2022/07/23 09:26:23;;;;;;;8.93;5.82;;;;;;;33.62;33.44;94944.50;5050062;28;20191;-81
2022/07/23 09:28:55;;;;;;;7.72;5.85;;;;;;;32.91;33.37;94829.09;5049386;28;20252;-80
2022/07/23 09:31:23;;;;;;;11.18;5.55;;;;;;;33.11;33.41;94851.22;5049588;28;20636;-82
2022/07/23 09:33:50;;;;;;;10.32;6.53;;;;;;;33.75;32.72;94937.00;5050260;28;20227;-83
2022/07/23 09:36:28;;;;;;;8.38;5.60;;;;;;;33.51;32.24;94889.97;5061871;28;20254;-82
2022/07/23 09:38:57;;;;;;;8.98;5.78;;;;;;;33.86;32.51;94923.38;5062802;28;20195;-81
2022/07/23 09:41:24;;;;;;;12.15;5.97;;;;;;;33.91;32.44;94923.31;5063192;28;21032;-83
2022/07/23 09:43:56;;;;;;;9.73;5.68;;;;;;;33.41;32.50;94839.63;5053214;28;20270;-82
2022/07/23 09:46:25;;;;;;;9.05;5.55;;;;;;;33.87;31.59;94892.31;5048818;28;20203;-80
2022/07/23 09:48:52;;;;;;;8.63;5.85;;;;;;;34.05;31.72;94922.69;5049207;28;20186;-83
2022/07/23 09:51:24;;;;;;;8.02;5.60;;;;;;;34.04;31.82;94911.28;5048509;28;20199;-82
2022/07/23 09:53:51;;;;;;;9.48;6.25;;;;;;;34.13;31.76;94920.22;5048509;28;20191;-83
2022/07/23 09:56:22;;;;;;;8.93;7.32;;;;;;;34.16;31.76;94919.69;5048305;28;20543;-84
2022/07/23 09:58:52;;;;;;;8.98;6.18;;;;;;;34.20;31.82;94907.44;5048868;28;20187;-83
2022/07/23 10:01:21;;;;;;;9.73;5.82;;;;;;;34.25;31.28;94913.75;5048349;28;20191;-82
2022/07/23 10:03:48;;;;;;;11.95;5.38;;;;;;;34.23;30.80;94899.94;5048384;28;20203;-83
2022/07/23 10:06:16;;;;;;;8.98;6.05;;;;;;;33.97;29.78;94851.63;5048036;28;20195;-84
2022/07/23 10:08:48;;;;;;;9.68;5.00;;;;;;;34.37;29.65;94898.19;5048387;28;20191;-83
2022/07/23 10:11:15;;;;;;;5.82;5.15;;;;;;;34.35;30.23;94895.84;5048398;28;20195;-82
2022/07/23 10:16:28;;;;;;;7.95;4.97;;;;;;;34.34;30.00;94890.81;5048254;28;20570;-82
2022/07/23 10:18:56;;;;;;;11.43;5.18;;;;;;;34.03;30.05;94837.25;5048482;28;20600;-83
2022/07/23 10:21:28;;;;;;;10.25;5.75;;;;;;;33.62;29.64;94782.69;5048905;28;20214;-86
2022/07/23 10:24:08;;;;;;;10.10;4.47;;;;;;;34.22;30.41;94855.91;5048243;28;20187;-81
2022/07/23 10:26:42;;;;;;;6.45;4.90;;;;;;;33.14;30.24;94691.66;5048717;28;20190;-85
2022/07/23 10:29:21;;;;;;;8.68;5.25;;;;;;;34.42;29.57;94879.56;5047525;28;20202;-85
2022/07/23 10:31:59;;;;;;;9.85;5.10;;;;;;;34.46;29.32;94880.59;5048505;28;20221;-85
2022/07/23 10:34:37;;;;;;;5.72;5.15;;;;;;;34.28;28.65;94850.22;5047987;28;20252;-84
2022/07/23 10:37:14;;;;;;;6.75;5.00;;;;;;;34.48;29.01;94873.16;5047956;28;20241;-82
2022/07/23 10:39:41;;;;;;;10.25;5.30;;;;;;;34.55;28.47;94875.47;5047998;28;20852;-82
2022/07/23 10:42:10;;;;;;;8.52;5.30;;;;;;;34.40;29.26;94853.28;5047441;28;20195;-82
2022/07/23 10:44:42;;;;;;;5.45;4.65;;;;;;;34.55;29.21;94870.94;5047637;28;20199;-82
2022/07/23 10:50:22;;;;;;;9.27;5.28;;;;;;;34.62;28.42;94865.28;4966534;28;20198;-81
2022/07/23 10:53:26;;;;;;;11.00;5.07;;;;;;;34.62;27.84;94858.09;4966421;28;20194;-82
2022/07/23 10:55:54;;;;;;;10.18;4.70;;;;;;;34.58;26.76;94849.09;4966732;28;20186;-81
2022/07/23 10:58:48;;;;;;;8.90;5.68;;;;;;;34.64;26.81;94855.94;4966271;28;20319;-81
2022/07/23 11:01:36;;;;;;;8.80;4.93;;;;;;;34.51;26.46;94840.72;4966771;28;20673;-80
2022/07/23 11:04:07;;;;;;;10.40;4.05;;;;;;;34.62;25.20;94850.13;4966303;28;20198;-79
2022/07/23 11:07:07;;;;;;;8.07;4.60;;;;;;;34.63;25.34;94857.03;4966216;28;20207;-85
2022/07/23 11:09:40;;;;;;;7.93;4.25;;;;;;;34.63;25.47;94850.91;4966533;28;20337;-80
2022/07/23 11:12:38;;;;;;;10.55;4.78;;;;;;;34.63;25.13;94838.44;4966693;28;20201;-82
2022/07/23 11:15:08;;;;;;;16.17;5.13;;;;;;;34.64;26.16;94836.56;4966906;28;20193;-82
2022/07/23 11:17:38;;;;;;;12.07;4.88;;;;;;;34.64;25.81;94836.56;4970157;28;20233;-83
2022/07/23 11:20:23;;;;;;;10.73;4.72;;;;;;;34.52;25.47;94809.63;4986319;28;20679;-84
2022/07/23 11:22:53;;;;;;;14.55;4.57;;;;;;;34.68;25.56;94832.25;4985751;28;20192;-84
2022/07/23 11:25:34;;;;;;;6.53;4.72;;;;;;;34.70;26.00;94819.47;5042371;28;20202;-82
2022/07/23 11:28:16;;;;;;;9.35;4.38;;;;;;;34.71;24.32;94818.38;5047445;28;20191;-84
2022/07/23 11:30:45;;;;;;;12.98;5.18;;;;;;;34.47;24.49;94797.19;5047409;28;20187;-83
2022/07/23 11:33:22;;;;;;;12.57;4.35;;;;;;;34.65;24.80;94820.31;5047315;28;20186;-82
2022/07/23 11:36:01;;;;;;;6.25;4.28;;;;;;;34.10;24.81;94732.28;5047327;28;20198;-82
2022/07/23 11:38:31;;;;;;;10.10;4.60;;;;;;;34.70;24.28;94814.94;5051408;28;20693;-83
2022/07/23 11:40:58;;;;;;;15.68;4.63;;;;;;;34.61;23.41;94799.94;5051047;28;20580;-82
2022/07/23 11:43:25;;;;;;;10.48;4.90;;;;;;;34.57;23.26;94786.44;5050656;28;20199;-82